createdAt,value
2022-10-20T00:01:15.170Z,80.00
2022-10-20T00:03:43.225Z,80.50
2022-10-20T00:06:17.498Z,80.50
2022-10-20T00:08:45.917Z,81.00
2022-10-20T00:11:15.416Z,81.40
2022-10-20T00:13:44.968Z,81.70
2022-10-20T00:16:12.980Z,81.90
2022-10-20T00:18:41.342Z,82.20
2022-10-20T00:21:12.855Z,82.40
2022-10-20T00:23:40.947Z,82.60
2022-10-20T00:26:14.295Z,82.90
2022-10-20T00:28:42.709Z,83.30
2022-10-20T00:31:10.379Z,83.40
2022-10-20T00:33:38.044Z,83.20
2022-10-20T00:36:08.173Z,83.00
2022-10-20T00:38:35.992Z,82.50
2022-10-20T00:41:03.756Z,82.50
2022-10-20T00:43:51.667Z,82.50
2022-10-20T00:46:40.415Z,83.10
2022-10-20T00:49:37.491Z,83.40
2022-10-20T00:52:05.564Z,84.20
2022-10-20T00:54:32.971Z,84.50
2022-10-20T00:57:00.690Z,84.90
2022-10-20T00:59:32.114Z,85.10
2022-10-20T01:02:01.645Z,85.00
2022-10-20T01:04:31.045Z,84.80
2022-10-20T01:06:59.340Z,84.10
2022-10-20T01:09:27.477Z,84.00
2022-10-20T01:12:19.498Z,84.10
2022-10-20T01:14:46.867Z,83.90
2022-10-20T01:17:23.726Z,83.60
2022-10-20T01:20:16.822Z,83.70
2022-10-20T01:23:02.011Z,83.80
2022-10-20T01:25:54.209Z,83.80
2022-10-20T01:28:55.010Z,84.00
2022-10-20T01:31:42.256Z,84.00
2022-10-20T01:34:25.059Z,83.90
2022-10-20T01:37:01.622Z,84.00
2022-10-20T01:39:35.826Z,84.10
2022-10-20T01:42:11.211Z,84.20
2022-10-20T01:44:39.550Z,84.40
2022-10-20T01:47:09.587Z,84.60
2022-10-20T01:49:37.144Z,84.70
2022-10-20T01:52:04.644Z,84.80
2022-10-20T01:54:32.060Z,84.80
2022-10-20T01:57:38.179Z,84.90
2022-10-20T02:00:12.505Z,84.80
2022-10-20T02:03:19.838Z,84.70
2022-10-20T02:06:03.199Z,84.60
2022-10-20T02:08:50.970Z,84.40
2022-10-20T02:11:31.877Z,84.30
2022-10-20T02:14:00.534Z,84.30
2022-10-20T02:16:34.312Z,84.10
2022-10-20T02:19:03.162Z,84.10
2022-10-20T02:21:31.314Z,84.30
2022-10-20T02:24:03.835Z,84.80
2022-10-20T02:26:33.626Z,84.80
2022-10-20T02:29:05.538Z,84.80
2022-10-20T02:31:33.256Z,84.80
2022-10-20T02:34:00.820Z,84.90
2022-10-20T02:36:29.806Z,84.70
2022-10-20T02:38:57.234Z,84.80
2022-10-20T02:41:24.501Z,84.80
2022-10-20T02:43:51.735Z,84.70
2022-10-20T02:46:18.988Z,84.50
2022-10-20T02:48:46.576Z,84.30
2022-10-20T02:51:14.450Z,83.70
2022-10-20T02:53:41.678Z,83.40
2022-10-20T02:56:09.172Z,83.80
2022-10-20T02:58:36.552Z,84.70
2022-10-20T03:01:04.682Z,84.70
2022-10-20T03:03:31.927Z,84.70
2022-10-20T03:06:06.552Z,85.10
2022-10-20T03:08:33.985Z,85.20
2022-10-20T03:11:01.595Z,85.10
2022-10-20T03:15:57.171Z,85.10
2022-10-20T03:18:24.438Z,85.00
2022-10-20T03:20:52.925Z,84.60
2022-10-20T03:23:20.874Z,84.30
2022-10-20T03:25:48.758Z,84.00
2022-10-20T03:28:16.113Z,83.80
2022-10-20T03:30:43.442Z,83.50
2022-10-20T03:33:11.014Z,83.50
2022-10-20T03:35:38.258Z,84.30
2022-10-20T03:38:05.485Z,83.50
2022-10-20T03:40:32.751Z,83.50
2022-10-20T03:42:59.973Z,83.80
2022-10-20T03:45:27.191Z,83.80
2022-10-20T03:47:54.985Z,84.20
2022-10-20T03:50:22.189Z,84.40
2022-10-20T03:52:49.839Z,84.50
2022-10-20T03:55:18.711Z,84.60
2022-10-20T03:57:46.062Z,84.70
2022-10-20T04:00:13.541Z,84.80
2022-10-20T04:02:43.679Z,85.00
2022-10-20T04:05:14.392Z,85.10
2022-10-20T04:07:42.444Z,85.40
2022-10-20T04:10:10.990Z,85.50
2022-10-20T04:12:38.496Z,85.60
2022-10-20T04:15:07.567Z,85.60
2022-10-20T04:17:36.838Z,85.60
2022-10-20T04:20:06.355Z,85.80
2022-10-20T04:22:34.034Z,85.90
2022-10-20T04:25:01.755Z,86.00
2022-10-20T04:27:29.435Z,85.80
2022-10-20T04:29:56.680Z,85.60
2022-10-20T04:32:24.333Z,85.30
2022-10-20T04:34:51.615Z,84.30
2022-10-20T04:37:18.979Z,84.30
2022-10-20T04:39:46.559Z,84.90
2022-10-20T04:42:13.791Z,85.40
2022-10-20T04:44:41.015Z,86.60
2022-10-20T04:47:08.570Z,86.30
2022-10-20T04:49:35.972Z,86.40
2022-10-20T04:52:03.786Z,86.70
2022-10-20T04:54:31.220Z,86.70
2022-10-20T04:56:58.605Z,86.60
2022-10-20T04:59:26.035Z,87.00
2022-10-20T05:01:53.393Z,87.10
2022-10-20T05:04:23.435Z,87.30
2022-10-20T05:06:50.883Z,87.20
2022-10-20T05:09:18.253Z,87.10
2022-10-20T05:11:45.585Z,87.30
2022-10-20T05:14:12.935Z,87.30
2022-10-20T05:16:40.167Z,87.10
2022-10-20T05:19:07.960Z,87.20
2022-10-20T05:21:35.507Z,87.90
2022-10-20T05:24:05.844Z,87.20
2022-10-20T05:26:37.027Z,87.20
2022-10-20T05:29:07.283Z,87.30
2022-10-20T05:31:43.359Z,87.40
2022-10-20T05:34:11.422Z,87.10
2022-10-20T05:36:39.447Z,86.80
2022-10-20T05:39:06.715Z,86.90
2022-10-20T05:41:38.007Z,86.90
2022-10-20T05:44:11.367Z,86.80
2022-10-20T05:46:41.707Z,86.70
2022-10-20T05:49:15.385Z,86.60
2022-10-20T05:51:44.344Z,86.10
2022-10-20T05:54:12.674Z,85.40
2022-10-20T05:56:40.428Z,85.10
2022-10-20T05:59:08.084Z,85.30
2022-10-20T06:01:48.275Z,85.30
2022-10-20T06:04:19.639Z,85.00
2022-10-20T06:06:48.972Z,84.60
2022-10-20T06:09:17.520Z,84.60
2022-10-20T06:11:44.889Z,84.80
2022-10-20T06:14:12.233Z,84.80
2022-10-20T06:16:39.747Z,84.50
2022-10-20T06:19:07.348Z,84.90
2022-10-20T06:21:36.066Z,84.80
2022-10-20T06:24:05.552Z,84.80
2022-10-20T06:26:36.273Z,84.80
2022-10-20T06:29:06.539Z,84.80
2022-10-20T06:31:35.651Z,84.90
2022-10-20T06:34:06.124Z,85.70
2022-10-20T06:36:36.627Z,84.80
2022-10-20T06:39:05.800Z,84.90
2022-10-20T06:41:34.221Z,85.10
2022-10-20T06:44:02.526Z,85.10
2022-10-20T06:46:32.617Z,85.10
2022-10-20T06:49:02.047Z,85.20
2022-10-20T06:51:30.309Z,85.20
2022-10-20T06:53:59.148Z,85.20
2022-10-20T06:56:29.032Z,85.40
2022-10-20T06:58:57.597Z,85.30
2022-10-20T07:01:24.979Z,85.60
2022-10-20T07:03:55.171Z,84.80
2022-10-20T07:06:30.608Z,84.80
2022-10-20T07:08:58.534Z,85.00
2022-10-20T07:11:28.815Z,85.10
2022-10-20T07:13:58.527Z,85.30
2022-10-20T07:16:27.658Z,85.50
2022-10-20T07:18:55.725Z,85.80
2022-10-20T07:21:32.239Z,85.90
2022-10-20T07:24:05.524Z,86.00
2022-10-20T07:26:35.763Z,86.00
2022-10-20T07:29:04.011Z,85.70
2022-10-20T07:31:35.075Z,85.10
2022-10-20T07:34:23.917Z,84.90
2022-10-20T07:36:52.134Z,84.50
2022-10-20T07:39:19.444Z,84.00
2022-10-20T07:41:48.255Z,83.80
2022-10-20T07:44:16.485Z,83.40
2022-10-20T07:46:44.334Z,83.30
2022-10-20T07:51:59.794Z,82.90
2022-10-20T07:54:27.207Z,82.50
2022-10-20T07:56:54.667Z,82.10
2022-10-20T07:59:22.087Z,81.80
2022-10-20T08:01:49.569Z,81.40
2022-10-20T08:04:16.883Z,80.90
2022-10-20T08:06:44.339Z,80.90
2022-10-20T08:09:11.571Z,80.30
2022-10-20T08:11:38.966Z,80.10
2022-10-20T08:14:06.274Z,79.00
2022-10-20T08:19:24.144Z,76.80
2022-10-20T08:21:51.526Z,76.00
2022-10-20T08:24:19.033Z,75.80
2022-10-20T08:26:46.445Z,75.60
2022-10-20T08:29:14.778Z,75.60
2022-10-20T08:31:44.680Z,75.40
2022-10-20T08:34:12.136Z,75.30
2022-10-20T08:36:39.553Z,74.70
2022-10-20T08:39:06.955Z,73.60
2022-10-20T08:42:06.271Z,73.50
2022-10-20T08:44:34.462Z,73.50
2022-10-20T08:47:04.550Z,73.50
2022-10-20T08:49:34.972Z,73.50
2022-10-20T08:52:02.390Z,72.70
2022-10-20T08:54:34.100Z,72.70
2022-10-20T08:57:01.455Z,71.70
2022-10-20T08:59:33.243Z,71.70
2022-10-20T09:02:02.209Z,71.40
2022-10-20T09:04:35.499Z,71.20
2022-10-20T09:07:10.498Z,70.70
2022-10-20T09:09:37.928Z,70.90
2022-10-20T09:12:07.821Z,70.80
2022-10-20T09:14:37.510Z,70.80
2022-10-20T09:17:09.184Z,71.00
2022-10-20T09:19:39.518Z,69.80
2022-10-20T09:22:07.606Z,69.70
2022-10-20T09:24:36.439Z,69.70
2022-10-20T09:27:29.932Z,69.30
2022-10-20T09:29:57.383Z,68.90
2022-10-20T09:32:47.801Z,69.00
2022-10-20T09:35:23.261Z,68.70
2022-10-20T09:38:25.274Z,68.40
2022-10-20T09:41:18.388Z,67.80
2022-10-20T09:43:54.366Z,67.90
2022-10-20T09:46:32.546Z,68.10
2022-10-20T09:49:00.176Z,67.70
2022-10-20T09:51:30.415Z,67.70
2022-10-20T09:54:02.800Z,67.80
2022-10-20T09:56:39.490Z,67.40
2022-10-20T09:59:18.745Z,67.60
2022-10-20T10:01:53.272Z,67.10
2022-10-20T10:04:38.681Z,67.40
2022-10-20T10:07:25.989Z,66.80
2022-10-20T10:10:03.873Z,66.80
2022-10-20T10:12:36.128Z,66.70
2022-10-20T10:15:06.676Z,66.60
2022-10-20T10:17:39.515Z,66.40
2022-10-20T10:20:11.242Z,66.00
2022-10-20T10:22:40.223Z,66.30
2022-10-20T10:25:15.011Z,65.90
2022-10-20T10:28:01.101Z,65.80
2022-10-20T10:30:31.911Z,65.60
2022-10-20T10:32:59.284Z,65.80
2022-10-20T10:35:33.479Z,65.80
2022-10-20T10:38:01.424Z,65.50
2022-10-20T10:40:47.052Z,65.20
2022-10-20T10:43:50.392Z,65.30
2022-10-20T10:46:21.534Z,65.10
2022-10-20T10:49:08.707Z,64.70
2022-10-20T10:52:18.991Z,65.20
2022-10-20T10:55:03.850Z,64.30
2022-10-20T10:57:44.363Z,64.70
2022-10-20T11:00:39.989Z,65.10
2022-10-20T11:03:39.735Z,64.60
2022-10-20T11:06:33.081Z,64.60
2022-10-20T11:09:08.477Z,64.90
2022-10-20T11:11:50.993Z,64.20
2022-10-20T11:14:45.390Z,64.40
2022-10-20T11:17:24.671Z,63.80
2022-10-20T11:20:18.846Z,63.90
2022-10-20T11:23:09.487Z,64.00
2022-10-20T11:26:02.820Z,64.30
2022-10-20T11:28:44.377Z,64.40
2022-10-20T11:31:48.432Z,64.20
2022-10-20T11:35:03.157Z,64.30
2022-10-20T11:37:51.600Z,64.00
2022-10-20T11:40:29.064Z,63.40
2022-10-20T11:43:35.179Z,63.40
2022-10-20T11:46:15.918Z,63.30
2022-10-20T11:48:51.171Z,63.80
2022-10-20T11:51:35.376Z,63.80
2022-10-20T11:54:44.932Z,63.90
2022-10-20T11:57:29.629Z,63.90
2022-10-20T12:00:12.020Z,64.00
2022-10-20T12:03:07.262Z,63.60
2022-10-20T12:06:10.166Z,63.40
2022-10-20T12:09:02.923Z,63.70
2022-10-20T12:11:49.106Z,63.80
2022-10-20T12:14:16.885Z,64.20
2022-10-20T12:16:55.878Z,64.30
2022-10-20T12:19:26.273Z,64.30
2022-10-20T12:21:57.848Z,63.70
2022-10-20T12:24:53.764Z,63.70
2022-10-20T12:27:22.229Z,64.10
2022-10-20T12:29:52.057Z,64.20
2022-10-20T12:32:24.351Z,64.10
2022-10-20T12:34:58.651Z,63.90
2022-10-20T12:37:25.975Z,63.90
2022-10-20T12:39:59.360Z,63.90
2022-10-20T12:42:26.581Z,64.00
2022-10-20T12:44:54.595Z,64.00
2022-10-20T12:47:26.045Z,64.10
2022-10-20T12:49:54.847Z,64.10
2022-10-20T12:52:27.188Z,64.30
2022-10-20T12:55:16.891Z,64.50
2022-10-20T12:57:45.464Z,64.40
2022-10-20T13:00:22.497Z,64.00
2022-10-20T13:02:53.547Z,63.50
2022-10-20T13:05:25.937Z,63.60
2022-10-20T13:07:53.181Z,63.80
2022-10-20T13:10:29.962Z,63.90
2022-10-20T13:13:03.396Z,64.10
2022-10-20T13:15:43.816Z,64.30
2022-10-20T13:18:24.024Z,64.50
2022-10-20T13:21:12.519Z,64.70
2022-10-20T13:23:46.935Z,65.00
2022-10-20T13:26:36.480Z,65.00
2022-10-20T13:29:12.039Z,64.80
2022-10-20T13:31:42.915Z,64.80
2022-10-20T13:34:24.913Z,64.90
2022-10-20T13:37:22.784Z,64.70
2022-10-20T13:39:50.306Z,64.70
2022-10-20T13:42:51.820Z,64.80
2022-10-20T13:45:41.876Z,64.70
2022-10-20T13:48:15.164Z,64.70
2022-10-20T13:50:48.847Z,64.40
2022-10-20T13:53:27.147Z,64.40
2022-10-20T13:56:21.832Z,64.50
2022-10-20T13:59:06.140Z,64.40
2022-10-20T14:01:36.039Z,64.10
2022-10-20T14:04:19.442Z,64.00
2022-10-20T14:06:47.315Z,63.60
2022-10-20T14:09:21.318Z,63.70
2022-10-20T14:11:53.197Z,63.50
2022-10-20T14:14:25.133Z,63.70
2022-10-20T14:17:04.395Z,64.00
2022-10-20T14:19:33.523Z,63.90
2022-10-20T14:22:16.031Z,63.80
2022-10-20T14:24:50.281Z,63.90
2022-10-20T14:27:24.457Z,63.90
2022-10-20T14:29:52.847Z,64.20
2022-10-20T14:32:23.763Z,64.50
2022-10-20T14:35:18.935Z,64.80
2022-10-20T14:38:01.347Z,65.10
2022-10-20T14:40:35.857Z,65.50
2022-10-20T14:43:15.700Z,65.50
2022-10-20T14:45:56.303Z,65.80
2022-10-20T14:48:29.811Z,65.90
2022-10-20T14:50:58.005Z,65.90
2022-10-20T14:53:30.484Z,66.20
2022-10-20T14:56:02.555Z,66.30
2022-10-20T14:58:37.811Z,66.40
2022-10-20T15:01:32.655Z,66.60
2022-10-20T15:04:25.793Z,67.00
2022-10-20T15:07:25.750Z,67.30
2022-10-20T15:10:17.776Z,67.70
2022-10-20T15:12:48.955Z,68.20
2022-10-20T15:15:18.799Z,68.50
2022-10-20T15:17:48.936Z,68.90
2022-10-20T15:20:34.441Z,69.30
2022-10-20T15:23:03.804Z,69.50
2022-10-20T15:25:52.836Z,69.80
2022-10-20T15:28:45.886Z,70.10
2022-10-20T15:31:13.134Z,70.30
2022-10-20T15:33:41.828Z,70.50
2022-10-20T15:36:21.565Z,70.80
2022-10-20T15:38:49.655Z,71.10
2022-10-20T15:41:22.864Z,71.30
2022-10-20T15:43:50.111Z,71.70
2022-10-20T15:46:18.387Z,71.90
2022-10-20T15:48:46.195Z,72.20
2022-10-20T15:51:25.191Z,72.40
2022-10-20T15:53:53.938Z,72.70
2022-10-20T15:56:21.266Z,72.80
2022-10-20T15:58:51.743Z,73.20
2022-10-20T16:01:21.378Z,73.50
2022-10-20T16:03:49.475Z,73.70
2022-10-20T16:06:18.146Z,74.00
2022-10-20T16:08:47.595Z,74.30
2022-10-20T16:11:16.311Z,74.60
2022-10-20T16:13:44.114Z,74.90
2022-10-20T16:16:15.181Z,75.20
2022-10-20T16:18:42.619Z,75.30
2022-10-20T16:21:10.457Z,75.50
2022-10-20T16:23:42.251Z,75.80
2022-10-20T16:26:13.755Z,76.00
2022-10-20T16:28:41.055Z,76.10
2022-10-20T16:31:11.565Z,76.10
2022-10-20T16:33:38.807Z,76.30
2022-10-20T16:36:09.295Z,76.30
2022-10-20T16:38:39.957Z,76.50
2022-10-20T16:41:10.374Z,76.70
2022-10-20T16:43:43.567Z,76.80
2022-10-20T16:46:12.295Z,77.80
2022-10-20T16:48:42.581Z,77.20
2022-10-20T16:51:13.077Z,77.40
2022-10-20T16:53:40.385Z,77.60
2022-10-20T16:56:08.296Z,77.70
2022-10-20T16:58:36.092Z,78.10
2022-10-20T17:01:12.523Z,78.20
2022-10-20T17:03:45.620Z,78.60
2022-10-20T17:06:14.571Z,78.70
2022-10-20T17:08:41.995Z,78.90
2022-10-20T17:11:18.364Z,79.00
2022-10-20T17:13:45.745Z,79.50
2022-10-20T17:16:16.255Z,79.60
2022-10-20T17:18:43.772Z,79.80
2022-10-20T17:21:12.006Z,79.80
2022-10-20T17:23:42.789Z,80.10
2022-10-20T17:26:22.414Z,80.20
2022-10-20T17:28:50.496Z,80.50
2022-10-20T17:31:18.712Z,80.60
2022-10-20T17:33:46.808Z,80.80
2022-10-20T17:36:15.167Z,80.70
2022-10-20T17:38:43.376Z,80.80
2022-10-20T17:41:15.781Z,81.10
2022-10-20T17:43:43.199Z,81.20
2022-10-20T17:46:15.776Z,81.40
2022-10-20T17:48:43.016Z,81.60
2022-10-20T17:51:11.941Z,81.80
2022-10-20T17:53:43.460Z,81.80
2022-10-20T17:56:14.015Z,82.00
2022-10-20T17:58:43.189Z,82.20
2022-10-20T18:01:20.269Z,82.40
2022-10-20T18:03:53.205Z,82.60
2022-10-20T18:06:22.232Z,82.70
2022-10-20T18:08:49.645Z,82.80
2022-10-20T18:11:22.214Z,83.00
2022-10-20T18:13:49.974Z,83.20
2022-10-20T18:16:19.439Z,83.50
2022-10-20T18:18:47.077Z,83.50
2022-10-20T18:21:16.464Z,83.70
2022-10-20T18:23:45.901Z,83.90
2022-10-20T18:26:16.966Z,83.90
2022-10-20T18:28:48.165Z,84.10
2022-10-20T18:31:24.565Z,84.10
2022-10-20T18:33:57.255Z,84.40
2022-10-20T18:36:26.347Z,84.50
2022-10-20T18:38:54.164Z,84.60
2022-10-20T18:41:29.828Z,84.60
2022-10-20T18:43:59.547Z,84.70
2022-10-20T18:46:28.525Z,84.90
2022-10-20T18:48:56.021Z,84.90
2022-10-20T18:51:23.732Z,85.10
2022-10-20T18:53:56.746Z,85.10
2022-10-20T18:56:26.497Z,85.20
2022-10-20T18:58:54.654Z,85.10
2022-10-20T19:01:24.267Z,85.90
2022-10-20T19:03:54.136Z,85.40
2022-10-20T19:06:24.220Z,85.40
2022-10-20T19:08:57.633Z,85.50
2022-10-20T19:11:27.546Z,86.20
2022-10-20T19:13:55.226Z,85.50
2022-10-20T19:16:26.048Z,85.50
2022-10-20T19:18:54.876Z,85.60
2022-10-20T19:21:22.931Z,85.40
2022-10-20T19:23:53.728Z,85.40
2022-10-20T19:26:33.511Z,85.50
2022-10-20T19:29:14.813Z,85.70
2022-10-20T19:31:53.033Z,85.60
2022-10-20T19:34:29.898Z,85.60
2022-10-20T19:36:58.540Z,85.70
2022-10-20T19:39:29.583Z,85.70
2022-10-20T19:41:59.546Z,85.80
2022-10-20T19:44:28.382Z,85.90
2022-10-20T19:46:56.786Z,85.90
2022-10-20T19:49:26.158Z,86.00
2022-10-20T19:51:53.699Z,86.20
2022-10-20T19:54:20.934Z,86.20
2022-10-20T19:56:48.213Z,86.30
2022-10-20T19:59:15.613Z,86.30
2022-10-20T20:01:42.857Z,86.20
2022-10-20T20:04:10.837Z,86.20
2022-10-20T20:06:38.519Z,86.20
2022-10-20T20:09:08.386Z,86.20
2022-10-20T20:11:37.587Z,86.20
2022-10-20T20:14:10.703Z,86.10
2022-10-20T20:16:38.203Z,86.10
2022-10-20T20:19:05.618Z,86.00
2022-10-20T20:21:33.059Z,85.90
2022-10-20T20:24:02.983Z,85.80
2022-10-20T20:26:36.254Z,85.70
2022-10-20T20:29:04.458Z,85.50
2022-10-20T20:31:33.052Z,85.40
2022-10-20T20:34:00.662Z,85.20
2022-10-20T20:36:28.384Z,85.10
2022-10-20T20:38:58.040Z,85.00
2022-10-20T20:41:28.134Z,85.00
2022-10-20T20:43:55.741Z,84.80
2022-10-20T20:46:26.827Z,84.80
2022-10-20T20:48:54.117Z,84.70
2022-10-20T20:51:21.664Z,84.70
2022-10-20T20:53:49.014Z,84.50
2022-10-20T20:56:20.489Z,84.30
2022-10-20T20:58:53.603Z,84.30
2022-10-20T21:01:31.922Z,84.10
2022-10-20T21:04:02.842Z,84.00
2022-10-20T21:06:56.552Z,83.90
2022-10-20T21:09:18.296Z,83.80
2022-10-20T21:11:46.032Z,83.60
2022-10-20T21:14:13.275Z,84.20
2022-10-20T21:16:40.767Z,83.50
2022-10-20T21:19:09.707Z,83.50
2022-10-20T21:21:39.382Z,83.30
2022-10-20T21:24:07.062Z,83.90
2022-10-20T21:26:34.491Z,83.10
2022-10-20T21:29:01.792Z,83.20
2022-10-20T21:31:30.103Z,83.10
2022-10-20T21:34:03.485Z,83.10
2022-10-20T21:36:32.690Z,83.20
2022-10-20T21:39:00.378Z,83.10
2022-10-20T21:41:30.577Z,83.10
2022-10-20T21:43:59.730Z,83.20
2022-10-20T21:46:33.031Z,83.20
2022-10-20T21:49:02.902Z,83.20
2022-10-20T21:51:33.161Z,83.10
2022-10-20T21:54:03.212Z,83.10
2022-10-20T21:56:34.071Z,83.10
2022-10-20T21:59:01.301Z,83.10
2022-10-20T22:01:28.814Z,83.10
2022-10-20T22:03:56.694Z,83.10
2022-10-20T22:06:26.082Z,83.00
2022-10-20T22:08:58.725Z,83.10
2022-10-20T22:11:29.251Z,83.10
2022-10-20T22:13:56.976Z,83.10
2022-10-20T22:16:27.116Z,83.10
2022-10-20T22:18:59.282Z,83.20
2022-10-20T22:21:28.086Z,83.30
2022-10-20T22:23:57.445Z,83.30
2022-10-20T22:26:29.544Z,83.30
2022-10-20T22:28:58.814Z,83.30
2022-10-20T22:31:27.018Z,83.30
2022-10-20T22:33:56.093Z,83.20
2022-10-20T22:36:24.103Z,83.30
2022-10-20T22:38:51.587Z,83.30
2022-10-20T22:41:19.192Z,83.30
2022-10-20T22:43:46.544Z,83.10
2022-10-20T22:46:15.747Z,83.00
2022-10-20T22:48:44.058Z,83.00
2022-10-20T22:52:03.559Z,82.90
2022-10-20T22:54:30.846Z,82.90
2022-10-20T22:57:18.327Z,82.90
2022-10-20T22:59:45.687Z,82.90
2022-10-20T23:02:13.108Z,82.90
2022-10-20T23:04:40.654Z,83.00
2022-10-20T23:07:07.888Z,83.00
2022-10-20T23:09:35.453Z,83.00
2022-10-20T23:12:02.903Z,83.00
2022-10-20T23:14:30.293Z,83.00
2022-10-20T23:16:57.527Z,83.00
2022-10-20T23:19:24.857Z,82.90
2022-10-20T23:21:52.242Z,82.80
2022-10-20T23:24:19.921Z,82.90
2022-10-20T23:26:47.194Z,82.90
2022-10-20T23:29:14.476Z,82.90
2022-10-20T23:31:41.731Z,83.00
2022-10-20T23:34:09.525Z,83.00
2022-10-20T23:36:39.022Z,83.00
2022-10-20T23:39:06.687Z,83.00
2022-10-20T23:41:33.911Z,82.90
2022-10-20T23:44:01.476Z,83.00
2022-10-20T23:46:32.106Z,83.00
2022-10-20T23:49:00.134Z,83.10
2022-10-20T23:51:27.777Z,83.00
2022-10-20T23:53:55.178Z,83.10
2022-10-20T23:56:22.520Z,83.00
2022-10-20T23:58:50.008Z,82.90
